Time;durP1;ratioP1;P1;durP2;ratioP2;P2;SDS_P1;SDS_P2;PMS_P1;PMS_P2;Temp;Humidity;BMP_temperature;BMP_pressure;BME280_temperature;BME280_humidity;BME280_pressure;Samples;Min_cycle;Max_cycle;Signal;HPM_P1;HPM_P2
2021/12/16 00:02:02;;;;;;;91.07;43.72;;;;;;;;;;6219969;28;20433;-72
2021/12/16 00:05:21;;;;;;;89.10;42.40;;;;;;;;;;6220459;28;20045;-72
2021/12/16 00:08:34;;;;;;;90.40;45.38;;;;;;;;;;6234485;28;20482;-73
2021/12/16 00:34:16;;;;;;;105.13;49.33;;;;;;;;;;6243969;28;20027;-72
2021/12/16 00:37:17;;;;;;;110.60;53.63;;;;;;;;;;6243115;28;20469;-72
2021/12/16 00:40:17;;;;;;;90.68;41.92;;;;;;;;;;6243692;28;20025;-72
2021/12/16 00:43:35;;;;;;;101.57;51.17;;;;;;;;;;6243452;28;20371;-72
2021/12/16 00:50:05;;;;;;;103.35;54.42;;;;;;;;;;6242768;28;20030;-72
2021/12/16 00:56:26;;;;;;;109.03;54.67;;;;;;;;;;6243173;28;20237;-72
2021/12/16 00:59:32;;;;;;;98.63;50.00;;;;;;;;;;6237957;28;20031;-72
2021/12/16 01:39:00;;;;;;;96.28;47.65;;;;;;;;;;6242561;28;20037;-73
2021/12/16 01:51:35;;;;;;;92.68;46.85;;;;;;;;;;6242071;28;20072;-73
2021/12/16 01:57:44;;;;;;;90.93;41.58;;;;;;;;;;6242470;28;20038;-73
2021/12/16 02:04:26;;;;;;;;;;;;;;;;;;6221610;28;20103;-73
2021/12/16 02:07:52;;;;;;;106.47;49.38;;;;;;;;;;6242309;28;20390;-73
2021/12/16 02:10:56;;;;;;;114.57;54.92;;;;;;;;;;6236415;28;20561;-73
2021/12/16 02:31:11;;;;;;;108.50;54.03;;;;;;;;;;6246251;28;20124;-73
2021/12/16 02:37:01;;;;;;;98.30;43.75;;;;;;;;;;6246329;28;20033;-73
2021/12/16 02:40:06;;;;;;;115.88;54.42;;;;;;;;;;6246204;28;20448;-73
2021/12/16 02:49:35;;;;;;;106.22;50.83;;;;;;;;;;6245982;28;20505;-73
2021/12/16 02:52:36;;;;;;;108.60;52.78;;;;;;;;;;6246304;28;20096;-73
2021/12/16 02:55:36;;;;;;;108.95;46.20;;;;;;;;;;6246297;28;20025;-73
2021/12/16 02:58:38;;;;;;;115.45;53.35;;;;;;;;;;6244562;28;20021;-73
2021/12/16 03:01:43;;;;;;;108.45;50.38;;;;;;;;;;6242631;28;20075;-73
2021/12/16 03:04:45;;;;;;;94.63;39.58;;;;;;;;;;6222380;28;20490;-73
2021/12/16 03:07:45;;;;;;;113.75;48.78;;;;;;;;;;6222461;28;20025;-73
2021/12/16 03:20:36;;;;;;;116.68;54.45;;;;;;;;;;6245537;28;20459;-73
2021/12/16 03:36:08;;;;;;;109.70;49.03;;;;;;;;;;6221108;28;20398;-73
2021/12/16 03:39:09;;;;;;;109.43;47.15;;;;;;;;;;6239377;28;20510;-73
2021/12/16 03:42:10;;;;;;;112.30;47.60;;;;;;;;;;6243708;28;20030;-73
2021/12/16 03:46:25;;;;;;;103.85;44.17;;;;;;;;;;6244822;28;20037;-73
2021/12/16 03:48:34;;;;;;;129.63;48.53;;;;;;;;;;6244885;28;20311;-73
2021/12/16 03:51:45;;;;;;;118.82;54.42;;;;;;;;;;6244452;28;20385;-73
2021/12/16 03:54:49;;;;;;;111.05;45.67;;;;;;;;;;6245031;28;20021;-73
2021/12/16 03:57:50;;;;;;;117.72;47.55;;;;;;;;;;6244751;28;20095;-73
2021/12/16 04:00:52;;;;;;;106.28;44.95;;;;;;;;;;6244190;28;20481;-73
2021/12/16 04:03:53;;;;;;;117.13;53.33;;;;;;;;;;6243384;28;20025;-73
2021/12/16 04:06:53;;;;;;;109.13;47.03;;;;;;;;;;6243302;28;20540;-73
2021/12/16 04:09:54;;;;;;;117.43;51.78;;;;;;;;;;6244079;28;20057;-73
2021/12/16 04:12:54;;;;;;;104.82;47.00;;;;;;;;;;6244299;28;20025;-73
2021/12/16 04:15:54;;;;;;;102.65;50.90;;;;;;;;;;6242613;28;20037;-73
2021/12/16 04:18:55;;;;;;;91.78;40.25;;;;;;;;;;6242830;28;20018;-73
2021/12/16 04:22:02;;;;;;;94.55;39.75;;;;;;;;;;6243227;28;20404;-73
2021/12/16 04:25:05;;;;;;;102.32;47.13;;;;;;;;;;6244386;28;20031;-73
2021/12/16 04:28:07;;;;;;;94.70;43.08;;;;;;;;;;6243489;28;20026;-73
2021/12/16 04:31:07;;;;;;;102.57;47.38;;;;;;;;;;6241908;28;20033;-73
2021/12/16 04:34:08;;;;;;;88.82;41.22;;;;;;;;;;6243816;28;20481;-73
2021/12/16 04:37:08;;;;;;;86.80;34.65;;;;;;;;;;6243872;28;20044;-73
2021/12/16 04:40:10;;;;;;;97.15;43.78;;;;;;;;;;6243583;28;20112;-73
2021/12/16 04:43:10;;;;;;;103.50;49.63;;;;;;;;;;6243410;28;20092;-73
2021/12/16 04:46:13;;;;;;;87.32;40.80;;;;;;;;;;6243813;28;20133;-73
2021/12/16 04:49:14;;;;;;;92.22;45.03;;;;;;;;;;6241150;28;20116;-73
2021/12/16 04:52:16;;;;;;;87.93;41.55;;;;;;;;;;6242372;28;20072;-73
2021/12/16 04:55:19;;;;;;;82.77;42.77;;;;;;;;;;6241962;28;20068;-73
2021/12/16 04:58:20;;;;;;;83.18;39.05;;;;;;;;;;6241862;28;20025;-73
2021/12/16 05:01:21;;;;;;;86.18;39.25;;;;;;;;;;6242971;28;20022;-73
2021/12/16 05:04:21;;;;;;;79.97;35.30;;;;;;;;;;6243090;28;20087;-73
2021/12/16 05:07:22;;;;;;;77.72;41.00;;;;;;;;;;6241165;28;20021;-73
2021/12/16 05:10:22;;;;;;;79.60;37.63;;;;;;;;;;6218188;28;20034;-73
2021/12/16 05:13:26;;;;;;;79.97;39.50;;;;;;;;;;6248578;28;20022;-73
2021/12/16 05:16:26;;;;;;;78.72;39.65;;;;;;;;;;6243388;28;20029;-73
2021/12/16 05:19:26;;;;;;;73.20;41.55;;;;;;;;;;6221388;28;20021;-73
2021/12/16 05:28:54;;;;;;;79.18;41.25;;;;;;;;;;6220044;28;20068;-73
2021/12/16 05:31:55;;;;;;;79.85;41.15;;;;;;;;;;6240132;28;20056;-73
2021/12/16 05:34:55;;;;;;;76.97;41.42;;;;;;;;;;6241662;28;20013;-73
2021/12/16 05:37:55;;;;;;;73.50;38.92;;;;;;;;;;6239398;28;20022;-73
2021/12/16 05:40:56;;;;;;;76.90;39.13;;;;;;;;;;6241266;28;20017;-73
2021/12/16 05:43:57;;;;;;;66.75;36.28;;;;;;;;;;6239730;28;20100;-73
2021/12/16 05:46:57;;;;;;;69.85;37.53;;;;;;;;;;6241107;28;20035;-73
2021/12/16 05:49:57;;;;;;;77.07;41.55;;;;;;;;;;6240261;28;20028;-73
2021/12/16 05:52:58;;;;;;;72.47;34.25;;;;;;;;;;6235174;28;20021;-73
2021/12/16 05:55:58;;;;;;;76.38;35.55;;;;;;;;;;6236461;28;20021;-73
2021/12/16 05:58:59;;;;;;;73.75;35.65;;;;;;;;;;6256601;28;20101;-73
2021/12/16 06:01:59;;;;;;;71.88;35.40;;;;;;;;;;6244198;28;20032;-73
2021/12/16 06:04:59;;;;;;;99.07;51.90;;;;;;;;;;6242435;28;20032;-73
2021/12/16 06:08:00;;;;;;;88.38;49.08;;;;;;;;;;6241646;28;20022;-73
2021/12/16 06:27:12;;;;;;;91.90;42.83;;;;;;;;;;6238658;28;20040;-73
2021/12/16 06:30:14;;;;;;;71.25;33.15;;;;;;;;;;6232884;28;20590;-73
2021/12/16 06:33:17;;;;;;;62.38;34.47;;;;;;;;;;6246412;28;20036;-73
2021/12/16 06:36:17;;;;;;;58.95;32.67;;;;;;;;;;6236065;28;20522;-73
2021/12/16 06:39:17;;;;;;;59.95;33.40;;;;;;;;;;6238105;28;20043;-73
2021/12/16 06:42:18;;;;;;;49.33;30.17;;;;;;;;;;6242929;28;20075;-73
2021/12/16 06:45:24;;;;;;;59.15;31.77;;;;;;;;;;6245932;28;20065;-73
2021/12/16 06:48:29;;;;;;;59.30;33.00;;;;;;;;;;6243852;28;20088;-73
2021/12/16 06:51:51;;;;;;;78.75;43.85;;;;;;;;;;6241224;28;20111;-73
2021/12/16 06:57:55;;;;;;;73.97;39.95;;;;;;;;;;6242087;28;20485;-73
2021/12/16 07:01:07;;;;;;;79.82;43.60;;;;;;;;;;6240763;28;20025;-73
2021/12/16 07:04:12;;;;;;;77.93;41.72;;;;;;;;;;6244491;28;20071;-73
2021/12/16 07:07:14;;;;;;;74.53;43.97;;;;;;;;;;6244704;28;20055;-73
2021/12/16 07:10:14;;;;;;;;;;;;;;;;;;6243286;28;20041;-73
2021/12/16 07:13:18;;;;;;;76.38;42.58;;;;;;;;;;6241419;28;19995;-73
2021/12/16 07:16:18;;;;;;;87.25;43.97;;;;;;;;;;6255538;28;20029;-73
2021/12/16 07:19:19;;;;;;;81.57;44.47;;;;;;;;;;6238937;28;20030;-73
2021/12/16 07:22:19;;;;;;;76.78;42.60;;;;;;;;;;6241500;28;20021;-73
2021/12/16 07:25:19;;;;;;;82.15;48.45;;;;;;;;;;6237678;28;20093;-73
2021/12/16 07:28:19;;;;;;;80.15;45.47;;;;;;;;;;6251326;28;20065;-73
2021/12/16 07:31:20;;;;;;;108.05;60.28;;;;;;;;;;6234536;28;20084;-73
2021/12/16 07:34:20;;;;;;;93.90;54.67;;;;;;;;;;6235546;28;20060;-73
2021/12/16 07:37:20;;;;;;;101.97;55.92;;;;;;;;;;6229000;28;20105;-73
2021/12/16 07:40:22;;;;;;;88.78;48.85;;;;;;;;;;6222098;28;20108;-72
2021/12/16 07:46:24;;;;;;;95.82;47.00;;;;;;;;;;6238725;28;20041;-72
2021/12/16 07:49:34;;;;;;;87.35;50.10;;;;;;;;;;6235757;28;20385;-72
2021/12/16 07:52:35;;;;;;;88.15;50.25;;;;;;;;;;6236067;28;20018;-72
2021/12/16 07:55:35;;;;;;;78.65;43.47;;;;;;;;;;6233964;28;20097;-72
2021/12/16 07:58:36;;;;;;;78.13;43.35;;;;;;;;;;6234742;28;20105;-72
2021/12/16 08:01:37;;;;;;;80.47;45.42;;;;;;;;;;6236479;28;20024;-72
2021/12/16 08:04:42;;;;;;;59.53;31.53;;;;;;;;;;6236256;28;20010;-73
2021/12/16 08:07:42;;;;;;;61.88;34.60;;;;;;;;;;6235966;28;20010;-73
2021/12/16 08:10:43;;;;;;;84.20;48.20;;;;;;;;;;6242034;28;20073;-73
2021/12/16 08:13:43;;;;;;;62.67;31.50;;;;;;;;;;6244181;28;20021;-73
2021/12/16 08:16:44;;;;;;;74.80;40.80;;;;;;;;;;6235339;28;20020;-73
2021/12/16 08:19:45;;;;;;;61.90;35.10;;;;;;;;;;6241494;28;20021;-73
2021/12/16 08:22:47;;;;;;;96.85;48.45;;;;;;;;;;6243950;28;20116;-73
2021/12/16 08:25:47;;;;;;;71.82;40.83;;;;;;;;;;6242608;28;20021;-73
2021/12/16 08:28:48;;;;;;;83.07;45.75;;;;;;;;;;6242592;28;20422;-73
2021/12/16 08:31:48;;;;;;;79.05;43.22;;;;;;;;;;6241281;28;20466;-73
2021/12/16 08:34:48;;;;;;;81.95;40.35;;;;;;;;;;6239596;28;20677;-73
2021/12/16 08:37:49;;;;;;;71.60;35.80;;;;;;;;;;6236631;28;20018;-73
2021/12/16 08:40:51;;;;;;;60.03;32.22;;;;;;;;;;6225676;28;20170;-73
2021/12/16 08:43:51;;;;;;;44.67;23.27;;;;;;;;;;6243446;28;20029;-73
2021/12/16 08:46:54;;;;;;;52.30;24.83;;;;;;;;;;6242226;28;20017;-73
2021/12/16 08:49:54;;;;;;;69.80;31.25;;;;;;;;;;6242695;28;20017;-73
2021/12/16 08:52:55;;;;;;;58.67;30.70;;;;;;;;;;6243718;28;20093;-73
2021/12/16 08:55:56;;;;;;;71.63;33.30;;;;;;;;;;6242371;28;20337;-73
2021/12/16 08:58:57;;;;;;;56.72;27.60;;;;;;;;;;6243415;28;20076;-73
2021/12/16 09:01:58;;;;;;;65.70;35.20;;;;;;;;;;6235996;28;20342;-73
2021/12/16 09:04:58;;;;;;;57.10;30.95;;;;;;;;;;6224164;28;20053;-73
2021/12/16 09:07:59;;;;;;;63.97;33.78;;;;;;;;;;6231352;28;20017;-73
2021/12/16 09:11:03;;;;;;;64.63;32.92;;;;;;;;;;6233746;28;20121;-73
2021/12/16 09:14:04;;;;;;;65.45;36.75;;;;;;;;;;6242442;28;20550;-73
2021/12/16 09:17:10;;;;;;;72.55;34.60;;;;;;;;;;6233090;28;20022;-73
2021/12/16 09:20:11;;;;;;;96.93;48.40;;;;;;;;;;6234435;28;20025;-74
2021/12/16 09:23:13;;;;;;;59.83;32.47;;;;;;;;;;6224274;28;20030;-73
2021/12/16 09:26:13;;;;;;;65.93;36.20;;;;;;;;;;6233488;28;20025;-73
2021/12/16 09:29:14;;;;;;;67.00;33.50;;;;;;;;;;6239935;28;20029;-73
2021/12/16 09:32:14;;;;;;;63.15;35.00;;;;;;;;;;6233166;28;20018;-73
2021/12/16 09:35:15;;;;;;;56.30;31.85;;;;;;;;;;6217380;28;20026;-73
2021/12/16 09:38:16;;;;;;;81.07;45.63;;;;;;;;;;6233043;28;20041;-73
2021/12/16 09:41:17;;;;;;;70.90;39.53;;;;;;;;;;6238630;28;20450;-73
2021/12/16 09:44:18;;;;;;;63.35;37.40;;;;;;;;;;6249447;28;20371;-73
2021/12/16 09:47:21;;;;;;;62.20;31.98;;;;;;;;;;6234387;28;20045;-73
2021/12/16 09:50:24;;;;;;;85.90;49.40;;;;;;;;;;6247545;28;20022;-73
2021/12/16 09:53:24;;;;;;;92.70;48.78;;;;;;;;;;6233705;28;20061;-73
2021/12/16 09:56:25;;;;;;;74.43;41.80;;;;;;;;;;6232423;28;20353;-73
2021/12/16 09:59:27;;;;;;;80.43;42.00;;;;;;;;;;6240162;28;20056;-73
2021/12/16 10:02:28;;;;;;;86.22;47.67;;;;;;;;;;6240834;28;20037;-73
2021/12/16 10:05:29;;;;;;;87.38;47.70;;;;;;;;;;6238843;28;20482;-73
2021/12/16 10:08:31;;;;;;;58.67;30.42;;;;;;;;;;6224733;28;20050;-73
2021/12/16 10:11:33;;;;;;;68.82;34.28;;;;;;;;;;6246878;28;20061;-73
2021/12/16 10:14:48;;;;;;;85.25;45.47;;;;;;;;;;6222867;28;20026;-74
2021/12/16 10:17:49;;;;;;;47.50;26.02;;;;;;;;;;6224382;28;20018;-73
2021/12/16 10:20:55;;;;;;;75.13;39.28;;;;;;;;;;6221187;28;20335;-73
2021/12/16 10:23:55;;;;;;;54.47;29.05;;;;;;;;;;6224589;28;20021;-73
2021/12/16 10:27:05;;;;;;;73.00;37.85;;;;;;;;;;6228287;28;20367;-73
2021/12/16 10:30:06;;;;;;;68.88;36.97;;;;;;;;;;6224363;28;20068;-73
2021/12/16 10:33:15;;;;;;;79.97;43.90;;;;;;;;;;6222528;28;20045;-73
2021/12/16 10:36:23;;;;;;;82.95;42.83;;;;;;;;;;6226918;28;20567;-73
2021/12/16 10:39:27;;;;;;;65.07;35.38;;;;;;;;;;6228522;28;20457;-73
2021/12/16 10:42:42;;;;;;;61.88;30.05;;;;;;;;;;6231188;28;20116;-73
2021/12/16 10:45:43;;;;;;;57.05;33.80;;;;;;;;;;6225601;28;20026;-73
2021/12/16 10:48:48;;;;;;;64.97;34.90;;;;;;;;;;6220773;28;20022;-73
2021/12/16 10:51:50;;;;;;;64.90;35.90;;;;;;;;;;6225173;28;20100;-73
2021/12/16 10:54:51;;;;;;;58.05;28.95;;;;;;;;;;6221372;28;20105;-73
2021/12/16 10:57:51;;;;;;;52.47;24.40;;;;;;;;;;6225205;28;20390;-73
2021/12/16 11:00:51;;;;;;;60.50;33.30;;;;;;;;;;6218839;28;20033;-73
2021/12/16 11:03:52;;;;;;;54.70;29.70;;;;;;;;;;6236575;28;20052;-73
2021/12/16 11:06:58;;;;;;;48.90;26.40;;;;;;;;;;6221089;28;20518;-73
2021/12/16 11:10:05;;;;;;;62.55;32.25;;;;;;;;;;6221081;28;20046;-73
2021/12/16 11:13:08;;;;;;;52.20;28.30;;;;;;;;;;6221152;28;20041;-73
2021/12/16 11:16:09;;;;;;;74.05;38.92;;;;;;;;;;6221221;28;20022;-72
2021/12/16 11:19:29;;;;;;;48.15;27.60;;;;;;;;;;6221540;28;20061;-72
2021/12/16 11:22:31;;;;;;;60.40;29.35;;;;;;;;;;6222013;28;20022;-72
2021/12/16 11:25:32;;;;;;;57.60;33.38;;;;;;;;;;6225738;28;20514;-72
2021/12/16 11:28:35;;;;;;;66.85;34.38;;;;;;;;;;6255358;28;20052;-72
2021/12/16 11:31:35;;;;;;;47.97;26.30;;;;;;;;;;6242469;28;20470;-72
2021/12/16 11:34:35;;;;;;;112.97;63.35;;;;;;;;;;6226022;28;20032;-72
2021/12/16 11:37:45;;;;;;;50.47;30.02;;;;;;;;;;6216895;28;20022;-72
2021/12/16 11:41:11;;;;;;;48.25;25.30;;;;;;;;;;6221617;28;20128;-72
2021/12/16 11:44:19;;;;;;;34.72;20.58;;;;;;;;;;6217811;28;20518;-72
2021/12/16 11:47:22;;;;;;;66.82;32.17;;;;;;;;;;6218082;28;20062;-72
2021/12/16 11:50:30;;;;;;;59.83;35.38;;;;;;;;;;6220979;28;20040;-72
2021/12/16 11:53:35;;;;;;;65.65;35.15;;;;;;;;;;6231689;28;20112;-72
2021/12/16 11:56:42;;;;;;;58.83;35.67;;;;;;;;;;6217792;28;20498;-72
2021/12/16 11:59:42;;;;;;;58.97;28.83;;;;;;;;;;6225227;28;20034;-72
2021/12/16 12:02:42;;;;;;;56.08;31.75;;;;;;;;;;6244467;28;20036;-72
2021/12/16 12:05:45;;;;;;;66.63;29.13;;;;;;;;;;6228262;28;20018;-72
2021/12/16 12:08:46;;;;;;;54.10;27.05;;;;;;;;;;6229694;28;20263;-72
2021/12/16 12:11:48;;;;;;;50.72;30.27;;;;;;;;;;6218359;28;20073;-72
2021/12/16 12:14:48;;;;;;;37.53;21.38;;;;;;;;;;6231314;28;20469;-72
2021/12/16 12:17:52;;;;;;;41.10;20.08;;;;;;;;;;6222420;28;20025;-72
2021/12/16 12:20:52;;;;;;;41.90;24.55;;;;;;;;;;6216022;28;20053;-72
2021/12/16 12:23:55;;;;;;;40.17;24.90;;;;;;;;;;6218449;28;20033;-72
2021/12/16 12:26:57;;;;;;;36.05;19.38;;;;;;;;;;6219398;28;20018;-72
2021/12/16 12:30:02;;;;;;;35.03;23.05;;;;;;;;;;6223889;28;20022;-72
2021/12/16 12:33:03;;;;;;;37.72;22.83;;;;;;;;;;6232944;28;20477;-72
2021/12/16 12:36:04;;;;;;;46.83;30.20;;;;;;;;;;6230469;28;20047;-72
2021/12/16 12:39:06;;;;;;;44.53;26.30;;;;;;;;;;6229252;28;20025;-72
2021/12/16 12:42:07;;;;;;;39.95;22.70;;;;;;;;;;6228026;28;20104;-72
2021/12/16 12:45:08;;;;;;;33.85;20.55;;;;;;;;;;6243601;28;20104;-72
2021/12/16 12:48:16;;;;;;;41.47;20.65;;;;;;;;;;6242438;28;20032;-72
2021/12/16 12:51:17;;;;;;;43.55;22.95;;;;;;;;;;6243019;28;20025;-72
2021/12/16 12:54:19;;;;;;;56.85;34.70;;;;;;;;;;6243713;28;20025;-72
2021/12/16 12:57:20;;;;;;;41.38;24.40;;;;;;;;;;6243480;28;20018;-72
2021/12/16 13:00:23;;;;;;;85.60;59.43;;;;;;;;;;6243528;28;20076;-72
2021/12/16 13:03:29;;;;;;;45.60;27.20;;;;;;;;;;6242955;28;20267;-72
2021/12/16 13:06:29;;;;;;;66.90;41.90;;;;;;;;;;6243219;28;20037;-72
2021/12/16 13:09:35;;;;;;;149.05;92.15;;;;;;;;;;6241836;28;20509;-72
2021/12/16 13:12:42;;;;;;;34.05;19.35;;;;;;;;;;6242551;28;20018;-72
2021/12/16 13:15:55;;;;;;;79.22;42.25;;;;;;;;;;6226407;28;20076;-72
2021/12/16 13:28:58;;;;;;;31.63;15.90;;;;;;;;;;6241115;28;20022;-72
2021/12/16 13:32:19;;;;;;;65.00;36.67;;;;;;;;;;6239622;28;20022;-72
2021/12/16 13:35:32;;;;;;;40.47;22.40;;;;;;;;;;6241981;28;20013;-72
2021/12/16 13:38:37;;;;;;;22.05;11.68;;;;;;;;;;6247349;28;20049;-72
2021/12/16 13:41:52;;;;;;;40.67;24.00;;;;;;;;;;6241574;28;20420;-72
2021/12/16 13:44:59;;;;;;;57.33;33.08;;;;;;;;;;6242443;28;20041;-72
2021/12/16 14:01:31;;;;;;;57.38;33.65;;;;;;;;;;6237153;28;20040;-72
2021/12/16 14:07:52;;;;;;;44.10;21.73;;;;;;;;;;6235348;28;20484;-72
2021/12/16 14:10:56;;;;;;;59.63;30.17;;;;;;;;;;6235446;28;20057;-72
2021/12/16 14:14:29;;;;;;;58.20;26.58;;;;;;;;;;6220264;28;20156;-72
2021/12/16 14:17:45;;;;;;;57.63;26.15;;;;;;;;;;6219792;28;20030;-72
2021/12/16 14:24:23;;;;;;;59.70;30.83;;;;;;;;;;6237540;28;20033;-72
2021/12/16 14:41:07;;;;;;;35.25;21.40;;;;;;;;;;6244280;28;20527;-72
2021/12/16 14:43:54;;;;;;;58.67;29.35;;;;;;;;;;6237035;28;20033;-72
2021/12/16 14:47:14;;;;;;;42.53;23.65;;;;;;;;;;6244792;28;20126;-72
2021/12/16 14:50:30;;;;;;;74.93;41.22;;;;;;;;;;6237180;28;20040;-72
2021/12/16 14:53:38;;;;;;;76.43;30.30;;;;;;;;;;6229369;28;20026;-72
2021/12/16 14:56:40;;;;;;;36.28;20.75;;;;;;;;;;6219859;28;20045;-72
2021/12/16 14:59:40;;;;;;;47.25;26.63;;;;;;;;;;6220281;28;20033;-72
2021/12/16 15:02:43;;;;;;;46.95;26.10;;;;;;;;;;6218535;28;20029;-72
2021/12/16 15:05:46;;;;;;;50.13;23.30;;;;;;;;;;6225235;28;20048;-72
2021/12/16 15:09:09;;;;;;;49.03;27.70;;;;;;;;;;6241107;28;20021;-72
2021/12/16 15:12:22;;;;;;;51.00;29.63;;;;;;;;;;6238600;28;20030;-72
2021/12/16 15:15:35;;;;;;;63.13;37.15;;;;;;;;;;6219564;28;20477;-72
2021/12/16 15:45:24;;;;;;;39.10;13.87;;;;;;;;;;6244227;28;20483;-72
2021/12/16 15:48:26;;;;;;;60.88;32.42;;;;;;;;;;6238644;28;20030;-72
2021/12/16 15:51:27;;;;;;;81.93;42.65;;;;;;;;;;6234689;28;20105;-72
2021/12/16 15:54:32;;;;;;;51.35;27.13;;;;;;;;;;6243499;28;20021;-72
2021/12/16 15:57:33;;;;;;;53.65;29.63;;;;;;;;;;6241902;28;20440;-72
2021/12/16 16:00:33;;;;;;;65.35;33.95;;;;;;;;;;6243529;28;20372;-72
2021/12/16 16:03:36;;;;;;;28.65;16.13;;;;;;;;;;6241239;28;20094;-72
2021/12/16 16:06:39;;;;;;;31.40;18.05;;;;;;;;;;6240305;28;20504;-72
2021/12/16 16:09:41;;;;;;;36.78;22.95;;;;;;;;;;6242256;28;20048;-72
2021/12/16 16:12:42;;;;;;;35.28;20.85;;;;;;;;;;6242585;28;20018;-72
2021/12/16 16:15:44;;;;;;;25.70;15.18;;;;;;;;;;6241450;28;20539;-72
2021/12/16 16:18:54;;;;;;;;;;;;;;;;;;6234713;28;20115;-72
2021/12/16 16:21:55;;;;;;;20.35;14.38;;;;;;;;;;6226132;28;20397;-72
2021/12/16 16:24:55;;;;;;;31.67;25.13;;;;;;;;;;6224315;28;20037;-72
2021/12/16 16:27:57;;;;;;;23.77;16.33;;;;;;;;;;6229899;28;20021;-72
2021/12/16 16:30:59;;;;;;;16.80;10.30;;;;;;;;;;6220706;28;20072;-72
2021/12/16 16:34:00;;;;;;;17.58;10.20;;;;;;;;;;6217763;28;20020;-72
2021/12/16 16:37:02;;;;;;;20.80;12.38;;;;;;;;;;6218247;28;20408;-72
2021/12/16 16:40:05;;;;;;;29.55;15.60;;;;;;;;;;6225902;28;20520;-72
2021/12/16 16:43:35;;;;;;;20.52;9.43;;;;;;;;;;6239837;28;20149;-73
2021/12/16 16:46:42;;;;;;;22.85;13.45;;;;;;;;;;6226612;28;20075;-73
2021/12/16 16:49:48;;;;;;;18.05;9.60;;;;;;;;;;6227278;28;20030;-73
2021/12/16 16:52:50;;;;;;;20.05;10.25;;;;;;;;;;6242732;28;20451;-73
2021/12/16 16:55:50;;;;;;;13.02;8.43;;;;;;;;;;6242849;28;20092;-73
2021/12/16 16:59:00;;;;;;;17.60;9.32;;;;;;;;;;6242580;28;20028;-73
2021/12/16 17:02:02;;;;;;;18.90;8.95;;;;;;;;;;6242132;28;20420;-73
2021/12/16 17:05:10;;;;;;;26.23;17.73;;;;;;;;;;6240483;28;20025;-73
2021/12/16 17:08:12;;;;;;;14.52;7.97;;;;;;;;;;6232090;28;20179;-73
2021/12/16 17:11:15;;;;;;;10.40;4.88;;;;;;;;;;6234549;28;20056;-73
2021/12/16 17:14:20;;;;;;;14.85;8.48;;;;;;;;;;6240771;28;20075;-73
2021/12/16 17:17:25;;;;;;;13.55;7.32;;;;;;;;;;6237712;28;20010;-73
2021/12/16 17:20:25;;;;;;;12.60;7.38;;;;;;;;;;6217458;28;20018;-73
2021/12/16 17:23:27;;;;;;;13.00;7.43;;;;;;;;;;6230611;28;20064;-73
2021/12/16 17:26:30;;;;;;;22.08;12.32;;;;;;;;;;6240468;28;20036;-73
2021/12/16 17:29:32;;;;;;;22.17;14.20;;;;;;;;;;6242072;28;20100;-73
2021/12/16 17:32:33;;;;;;;18.52;8.30;;;;;;;;;;6232527;28;20097;-73
2021/12/16 17:35:41;;;;;;;14.80;8.13;;;;;;;;;;6224327;28;20037;-73
2021/12/16 17:38:41;;;;;;;14.20;6.60;;;;;;;;;;6231489;28;20013;-73
2021/12/16 17:41:42;;;;;;;15.65;9.15;;;;;;;;;;6235588;28;20104;-73
2021/12/16 17:44:44;;;;;;;17.17;9.85;;;;;;;;;;6240124;28;20120;-73
2021/12/16 17:47:44;;;;;;;;;;;;;;;;;;6248744;28;20017;-73
2021/12/16 17:50:45;;;;;;;40.45;20.23;;;;;;;;;;6220964;28;19924;-73
2021/12/16 17:53:47;;;;;;;22.40;14.00;;;;;;;;;;6223165;28;20063;-73
2021/12/16 17:56:51;;;;;;;23.88;13.90;;;;;;;;;;6226341;28;20060;-73
2021/12/16 17:59:52;;;;;;;22.45;12.13;;;;;;;;;;6225219;28;20044;-73
2021/12/16 18:02:52;;;;;;;43.40;28.60;;;;;;;;;;6244321;28;20500;-73
2021/12/16 18:05:54;;;;;;;26.88;10.95;;;;;;;;;;6237052;28;20041;-73
2021/12/16 18:08:57;;;;;;;;;;;;;;;;;;6232321;28;20029;-73
2021/12/16 18:11:59;;;;;;;23.90;15.38;;;;;;;;;;6222519;28;19917;-73
2021/12/16 18:15:03;;;;;;;13.60;7.00;;;;;;;;;;6222562;28;20025;-73
2021/12/16 18:18:07;;;;;;;14.20;7.07;;;;;;;;;;6238093;28;20018;-73
2021/12/16 18:21:07;;;;;;;14.60;8.40;;;;;;;;;;6231979;28;20047;-73
2021/12/16 18:24:08;;;;;;;22.55;10.35;;;;;;;;;;6258903;28;20113;-73
2021/12/16 18:27:15;;;;;;;33.00;18.70;;;;;;;;;;6247188;28;20009;-73
2021/12/16 18:30:30;;;;;;;48.28;24.95;;;;;;;;;;6247251;28;20019;-73
2021/12/16 18:33:33;;;;;;;26.50;14.93;;;;;;;;;;6246175;28;20041;-73
2021/12/16 18:36:35;;;;;;;;;;;;;;;;;;6245835;28;20017;-73
2021/12/16 18:39:38;;;;;;;15.77;7.65;;;;;;;;;;6243840;28;20352;-73
2021/12/16 18:42:38;;;;;;;14.82;7.75;;;;;;;;;;6244091;28;20021;-73
2021/12/16 18:45:40;;;;;;;14.23;7.43;;;;;;;;;;6244289;28;20036;-73
2021/12/16 18:52:31;;;;;;;13.25;7.28;;;;;;;;;;6234896;28;20084;-73
2021/12/16 18:55:10;;;;;;;17.90;8.02;;;;;;;;;;6234873;28;20057;-73
2021/12/16 18:58:11;;;;;;;25.60;14.00;;;;;;;;;;6236157;28;20385;-73
2021/12/16 19:01:14;;;;;;;27.00;14.27;;;;;;;;;;6231110;28;20052;-73
2021/12/16 19:04:15;;;;;;;44.78;21.27;;;;;;;;;;6234086;28;20476;-73
2021/12/16 19:07:17;;;;;;;74.15;31.35;;;;;;;;;;6231400;28;20448;-73
2021/12/16 19:10:20;;;;;;;57.90;25.15;;;;;;;;;;6227969;28;20041;-73
2021/12/16 19:13:31;;;;;;;38.25;19.13;;;;;;;;;;6222826;28;20024;-73
2021/12/16 19:16:31;;;;;;;29.13;14.48;;;;;;;;;;6228769;28;20366;-73
2021/12/16 19:19:32;;;;;;;27.15;11.57;;;;;;;;;;6243457;28;20056;-73
2021/12/16 19:22:32;;;;;;;29.50;12.98;;;;;;;;;;6232959;28;20036;-73
2021/12/16 19:25:33;;;;;;;17.73;8.38;;;;;;;;;;6236167;28;20029;-73
2021/12/16 19:28:33;;;;;;;18.90;8.93;;;;;;;;;;6236648;28;20537;-73
2021/12/16 19:31:34;;;;;;;43.63;18.58;;;;;;;;;;6231216;28;20497;-73
2021/12/16 19:34:35;;;;;;;33.70;18.03;;;;;;;;;;6229612;28;20025;-73
2021/12/16 19:37:36;;;;;;;22.15;8.73;;;;;;;;;;6238281;28;20119;-73
2021/12/16 19:40:37;;;;;;;24.08;12.43;;;;;;;;;;6222570;28;20438;-73
2021/12/16 19:43:39;;;;;;;25.30;12.27;;;;;;;;;;6242620;28;20052;-73
2021/12/16 19:46:40;;;;;;;28.45;15.63;;;;;;;;;;6245789;28;20443;-73
2021/12/16 19:49:40;;;;;;;27.38;12.55;;;;;;;;;;6235917;28;20032;-73
2021/12/16 19:52:41;;;;;;;31.15;14.20;;;;;;;;;;6245539;28;20584;-73
2021/12/16 19:55:41;;;;;;;33.58;16.23;;;;;;;;;;6245917;28;20032;-73
2021/12/16 19:58:42;;;;;;;32.25;15.00;;;;;;;;;;6245192;28;20482;-73
2021/12/16 20:01:44;;;;;;;22.13;10.73;;;;;;;;;;6245294;28;20033;-73
2021/12/16 20:04:46;;;;;;;37.15;16.75;;;;;;;;;;6244873;28;20032;-73
2021/12/16 20:07:47;;;;;;;38.40;17.48;;;;;;;;;;6245117;28;20493;-73
2021/12/16 20:10:49;;;;;;;57.80;24.42;;;;;;;;;;6223069;28;20042;-72
2021/12/16 20:13:50;;;;;;;62.40;25.98;;;;;;;;;;6242480;28;20075;-72
2021/12/16 20:16:54;;;;;;;36.80;16.83;;;;;;;;;;6229678;28;20030;-72
2021/12/16 20:20:20;;;;;;;52.97;22.77;;;;;;;;;;6234471;28;20065;-72
2021/12/16 20:23:21;;;;;;;42.50;18.77;;;;;;;;;;6231981;28;20406;-72
2021/12/16 20:26:25;;;;;;;63.53;21.98;;;;;;;;;;6223082;28;20045;-72
2021/12/16 20:29:29;;;;;;;52.92;20.88;;;;;;;;;;6216729;28;20345;-72
2021/12/16 20:32:36;;;;;;;104.82;34.80;;;;;;;;;;6219578;28;20022;-72
2021/12/16 20:35:47;;;;;;;49.85;19.75;;;;;;;;;;6217293;28;20429;-73
2021/12/16 20:38:59;;;;;;;48.53;19.60;;;;;;;;;;6215741;28;20006;-73
2021/12/16 20:42:06;;;;;;;46.17;20.42;;;;;;;;;;6239095;28;20026;-73
2021/12/16 20:45:18;;;;;;;35.03;11.88;;;;;;;;;;6241079;28;20029;-73
2021/12/16 20:48:21;;;;;;;34.85;14.63;;;;;;;;;;6241598;28;20025;-73
2021/12/16 20:51:44;;;;;;;34.35;12.75;;;;;;;;;;6227582;28;20084;-73
2021/12/16 20:54:47;;;;;;;89.47;31.85;;;;;;;;;;6209463;28;20044;-73
2021/12/16 20:57:47;;;;;;;49.50;20.23;;;;;;;;;;6218003;28;20097;-73
2021/12/16 21:00:49;;;;;;;72.18;26.58;;;;;;;;;;6218294;28;20385;-73
2021/12/16 21:03:49;;;;;;;27.75;11.98;;;;;;;;;;6216294;28;20412;-73
2021/12/16 21:06:50;;;;;;;40.47;17.73;;;;;;;;;;6216441;28;20088;-73
2021/12/16 21:09:51;;;;;;;42.10;18.63;;;;;;;;;;6215914;28;20049;-73
2021/12/16 21:12:51;;;;;;;47.75;18.13;;;;;;;;;;6217548;28;20014;-73
2021/12/16 21:15:52;;;;;;;36.38;17.73;;;;;;;;;;6217611;28;20120;-73
2021/12/16 21:18:52;;;;;;;28.08;11.27;;;;;;;;;;6232443;28;20022;-73
2021/12/16 21:21:54;;;;;;;41.65;16.13;;;;;;;;;;6216747;28;20429;-73
2021/12/16 21:24:54;;;;;;;23.15;11.20;;;;;;;;;;6216944;28;20026;-73
2021/12/16 21:27:56;;;;;;;23.38;11.02;;;;;;;;;;6235405;28;20068;-73
2021/12/16 21:30:57;;;;;;;26.80;10.25;;;;;;;;;;6241220;28;20025;-73
2021/12/16 21:34:06;;;;;;;24.48;14.88;;;;;;;;;;6241496;28;20017;-73
2021/12/16 21:37:09;;;;;;;25.77;13.40;;;;;;;;;;6242344;28;20029;-73
2021/12/16 21:40:10;;;;;;;34.20;15.55;;;;;;;;;;6219400;28;20030;-73
2021/12/16 21:43:10;;;;;;;30.30;11.85;;;;;;;;;;6229095;28;20029;-73